sensor_id;sensor_type;location;lat;lon;timestamp;P1;durP1;ratioP1;P2;durP2;ratioP2
49139;SDS011;34959;49.310;8.646;2023-05-29T00:01:31;4.72;;;2.45;;
49139;SDS011;34959;49.310;8.646;2023-05-29T00:03:57;4.82;;;2.53;;
49139;SDS011;34959;49.310;8.646;2023-05-29T00:06:23;4.47;;;2.35;;
49139;SDS011;34959;49.310;8.646;2023-05-29T00:08:48;4.43;;;2.17;;
49139;SDS011;34959;49.310;8.646;2023-05-29T00:11:14;4.47;;;2.15;;
49139;SDS011;34959;49.310;8.646;2023-05-29T00:13:39;2.90;;;1.83;;
49139;SDS011;34959;49.310;8.646;2023-05-29T00:16:05;4.18;;;2.08;;
49139;SDS011;34959;49.310;8.646;2023-05-29T00:18:31;6.10;;;1.67;;
49139;SDS011;34959;49.310;8.646;2023-05-29T00:20:56;2.03;;;1.40;;
49139;SDS011;34959;49.310;8.646;2023-05-29T00:23:21;2.92;;;1.80;;
49139;SDS011;34959;49.310;8.646;2023-05-29T00:25:47;2.65;;;1.65;;
49139;SDS011;34959;49.310;8.646;2023-05-29T00:28:12;2.47;;;1.35;;
49139;SDS011;34959;49.310;8.646;2023-05-29T00:30:38;2.20;;;1.67;;
49139;SDS011;34959;49.310;8.646;2023-05-29T00:33:04;3.92;;;1.60;;
49139;SDS011;34959;49.310;8.646;2023-05-29T00:35:30;2.72;;;1.42;;
49139;SDS011;34959;49.310;8.646;2023-05-29T00:37:55;2.35;;;1.50;;
49139;SDS011;34959;49.310;8.646;2023-05-29T00:40:21;2.95;;;1.65;;
49139;SDS011;34959;49.310;8.646;2023-05-29T00:42:46;3.60;;;1.90;;
49139;SDS011;34959;49.310;8.646;2023-05-29T00:45:12;3.88;;;1.70;;
49139;SDS011;34959;49.310;8.646;2023-05-29T00:47:38;3.83;;;1.70;;
49139;SDS011;34959;49.310;8.646;2023-05-29T00:50:05;2.03;;;1.50;;
49139;SDS011;34959;49.310;8.646;2023-05-29T00:52:31;3.70;;;1.98;;
49139;SDS011;34959;49.310;8.646;2023-05-29T00:54:56;2.80;;;1.70;;
49139;SDS011;34959;49.310;8.646;2023-05-29T00:57:22;2.40;;;1.67;;
49139;SDS011;34959;49.310;8.646;2023-05-29T00:59:48;3.17;;;1.70;;
49139;SDS011;34959;49.310;8.646;2023-05-29T01:02:14;3.20;;;1.58;;
49139;SDS011;34959;49.310;8.646;2023-05-29T01:04:41;3.10;;;1.77;;
49139;SDS011;34959;49.310;8.646;2023-05-29T01:07:07;5.45;;;2.13;;
49139;SDS011;34959;49.310;8.646;2023-05-29T01:09:34;3.35;;;1.80;;
49139;SDS011;34959;49.310;8.646;2023-05-29T01:20:40;2.75;;;1.80;;
49139;SDS011;34959;49.310;8.646;2023-05-29T01:31:17;3.00;;;1.80;;
49139;SDS011;34959;49.310;8.646;2023-05-29T01:33:51;2.67;;;1.60;;
49139;SDS011;34959;49.310;8.646;2023-05-29T01:36:20;2.15;;;1.60;;
49139;SDS011;34959;49.310;8.646;2023-05-29T01:38:46;4.80;;;1.67;;
49139;SDS011;34959;49.310;8.646;2023-05-29T01:41:12;2.47;;;1.80;;
49139;SDS011;34959;49.310;8.646;2023-05-29T01:43:40;3.15;;;2.00;;
49139;SDS011;34959;49.310;8.646;2023-05-29T01:46:05;2.90;;;1.83;;
49139;SDS011;34959;49.310;8.646;2023-05-29T01:48:31;3.33;;;1.60;;
49139;SDS011;34959;49.310;8.646;2023-05-29T01:50:57;2.90;;;1.70;;
49139;SDS011;34959;49.310;8.646;2023-05-29T01:53:23;2.72;;;1.92;;
49139;SDS011;34959;49.310;8.646;2023-05-29T01:55:49;2.53;;;1.63;;
49139;SDS011;34959;49.310;8.646;2023-05-29T01:58:15;3.03;;;1.77;;
49139;SDS011;34959;49.310;8.646;2023-05-29T02:00:41;2.35;;;1.35;;
49139;SDS011;34959;49.310;8.646;2023-05-29T02:03:07;2.40;;;1.50;;
49139;SDS011;34959;49.310;8.646;2023-05-29T02:05:32;3.00;;;1.83;;
49139;SDS011;34959;49.310;8.646;2023-05-29T02:07:58;2.78;;;1.70;;
49139;SDS011;34959;49.310;8.646;2023-05-29T02:10:23;4.47;;;1.60;;
49139;SDS011;34959;49.310;8.646;2023-05-29T02:12:48;3.58;;;2.00;;
49139;SDS011;34959;49.310;8.646;2023-05-29T02:15:14;2.95;;;1.70;;
49139;SDS011;34959;49.310;8.646;2023-05-29T02:17:40;3.50;;;1.80;;
49139;SDS011;34959;49.310;8.646;2023-05-29T02:20:06;2.78;;;1.70;;
49139;SDS011;34959;49.310;8.646;2023-05-29T02:22:32;3.72;;;1.80;;
49139;SDS011;34959;49.310;8.646;2023-05-29T02:24:58;2.45;;;1.60;;
49139;SDS011;34959;49.310;8.646;2023-05-29T02:27:23;3.15;;;1.80;;
49139;SDS011;34959;49.310;8.646;2023-05-29T02:29:48;3.53;;;2.00;;
49139;SDS011;34959;49.310;8.646;2023-05-29T02:32:14;3.42;;;1.73;;
49139;SDS011;34959;49.310;8.646;2023-05-29T02:34:39;4.22;;;1.67;;
49139;SDS011;34959;49.310;8.646;2023-05-29T02:37:04;2.70;;;1.80;;
49139;SDS011;34959;49.310;8.646;2023-05-29T02:39:30;2.85;;;2.03;;
49139;SDS011;34959;49.310;8.646;2023-05-29T02:41:55;1.83;;;1.58;;
49139;SDS011;34959;49.310;8.646;2023-05-29T02:44:21;3.20;;;1.63;;
49139;SDS011;34959;49.310;8.646;2023-05-29T02:46:46;2.22;;;1.60;;
49139;SDS011;34959;49.310;8.646;2023-05-29T02:49:12;3.08;;;1.70;;
49139;SDS011;34959;49.310;8.646;2023-05-29T02:51:37;3.10;;;1.67;;
49139;SDS011;34959;49.310;8.646;2023-05-29T02:54:02;3.83;;;1.85;;
49139;SDS011;34959;49.310;8.646;2023-05-29T02:56:28;2.90;;;1.63;;
49139;SDS011;34959;49.310;8.646;2023-05-29T02:58:54;2.90;;;1.80;;
49139;SDS011;34959;49.310;8.646;2023-05-29T03:01:19;4.88;;;1.50;;
49139;SDS011;34959;49.310;8.646;2023-05-29T03:03:45;2.83;;;1.70;;
49139;SDS011;34959;49.310;8.646;2023-05-29T03:06:10;2.13;;;1.48;;
49139;SDS011;34959;49.310;8.646;2023-05-29T03:08:37;2.75;;;1.77;;
49139;SDS011;34959;49.310;8.646;2023-05-29T03:11:08;3.03;;;1.50;;
49139;SDS011;34959;49.310;8.646;2023-05-29T03:13:36;2.35;;;1.50;;
49139;SDS011;34959;49.310;8.646;2023-05-29T03:16:04;2.40;;;1.70;;
49139;SDS011;34959;49.310;8.646;2023-05-29T03:18:30;2.33;;;1.90;;
49139;SDS011;34959;49.310;8.646;2023-05-29T03:20:55;3.30;;;1.80;;
49139;SDS011;34959;49.310;8.646;2023-05-29T03:23:21;2.63;;;1.70;;
49139;SDS011;34959;49.310;8.646;2023-05-29T03:25:46;2.53;;;2.00;;
49139;SDS011;34959;49.310;8.646;2023-05-29T03:28:11;3.22;;;1.80;;
49139;SDS011;34959;49.310;8.646;2023-05-29T03:30:39;2.50;;;1.80;;
49139;SDS011;34959;49.310;8.646;2023-05-29T03:33:05;3.25;;;1.80;;
49139;SDS011;34959;49.310;8.646;2023-05-29T03:35:30;2.88;;;1.63;;
49139;SDS011;34959;49.310;8.646;2023-05-29T03:37:56;3.25;;;1.77;;
49139;SDS011;34959;49.310;8.646;2023-05-29T03:40:21;2.88;;;1.70;;
49139;SDS011;34959;49.310;8.646;2023-05-29T03:42:47;3.08;;;1.90;;
49139;SDS011;34959;49.310;8.646;2023-05-29T03:45:12;3.92;;;1.80;;
49139;SDS011;34959;49.310;8.646;2023-05-29T03:47:37;5.50;;;1.67;;
49139;SDS011;34959;49.310;8.646;2023-05-29T03:50:03;3.50;;;1.58;;
49139;SDS011;34959;49.310;8.646;2023-05-29T03:52:29;2.78;;;1.60;;
49139;SDS011;34959;49.310;8.646;2023-05-29T03:54:54;3.70;;;1.55;;
49139;SDS011;34959;49.310;8.646;2023-05-29T03:57:20;3.45;;;1.65;;
49139;SDS011;34959;49.310;8.646;2023-05-29T03:59:45;3.15;;;1.42;;
49139;SDS011;34959;49.310;8.646;2023-05-29T04:02:11;2.47;;;1.52;;
49139;SDS011;34959;49.310;8.646;2023-05-29T04:04:36;3.40;;;1.85;;
49139;SDS011;34959;49.310;8.646;2023-05-29T04:07:02;2.30;;;1.80;;
49139;SDS011;34959;49.310;8.646;2023-05-29T04:09:28;1.92;;;1.60;;
49139;SDS011;34959;49.310;8.646;2023-05-29T04:11:54;2.75;;;1.77;;
49139;SDS011;34959;49.310;8.646;2023-05-29T04:14:20;2.90;;;1.60;;
49139;SDS011;34959;49.310;8.646;2023-05-29T04:16:45;2.75;;;1.80;;
49139;SDS011;34959;49.310;8.646;2023-05-29T04:19:11;2.92;;;1.58;;
49139;SDS011;34959;49.310;8.646;2023-05-29T04:21:36;3.15;;;1.88;;
49139;SDS011;34959;49.310;8.646;2023-05-29T04:24:02;2.45;;;1.65;;
49139;SDS011;34959;49.310;8.646;2023-05-29T04:26:27;2.08;;;1.38;;
49139;SDS011;34959;49.310;8.646;2023-05-29T04:28:53;3.33;;;1.83;;
49139;SDS011;34959;49.310;8.646;2023-05-29T04:31:23;2.25;;;1.70;;
49139;SDS011;34959;49.310;8.646;2023-05-29T04:33:54;2.65;;;1.80;;
49139;SDS011;34959;49.310;8.646;2023-05-29T04:36:23;2.95;;;1.75;;
49139;SDS011;34959;49.310;8.646;2023-05-29T04:38:50;2.58;;;1.70;;
49139;SDS011;34959;49.310;8.646;2023-05-29T04:41:16;2.47;;;1.67;;
49139;SDS011;34959;49.310;8.646;2023-05-29T04:43:42;3.03;;;1.40;;
49139;SDS011;34959;49.310;8.646;2023-05-29T04:46:07;2.83;;;1.70;;
49139;SDS011;34959;49.310;8.646;2023-05-29T04:48:38;2.30;;;1.55;;
49139;SDS011;34959;49.310;8.646;2023-05-29T04:51:06;2.25;;;1.38;;
49139;SDS011;34959;49.310;8.646;2023-05-29T04:53:31;3.17;;;1.80;;
49139;SDS011;34959;49.310;8.646;2023-05-29T04:55:57;3.50;;;1.67;;
49139;SDS011;34959;49.310;8.646;2023-05-29T04:58:24;2.80;;;1.65;;
49139;SDS011;34959;49.310;8.646;2023-05-29T05:00:50;2.45;;;1.92;;
49139;SDS011;34959;49.310;8.646;2023-05-29T05:03:16;2.65;;;1.73;;
49139;SDS011;34959;49.310;8.646;2023-05-29T05:05:41;3.45;;;1.65;;
49139;SDS011;34959;49.310;8.646;2023-05-29T05:08:09;3.33;;;1.80;;
49139;SDS011;34959;49.310;8.646;2023-05-29T05:10:36;4.43;;;1.63;;
49139;SDS011;34959;49.310;8.646;2023-05-29T05:13:02;2.85;;;1.90;;
49139;SDS011;34959;49.310;8.646;2023-05-29T05:15:28;2.42;;;1.45;;
49139;SDS011;34959;49.310;8.646;2023-05-29T05:17:53;2.13;;;1.65;;
49139;SDS011;34959;49.310;8.646;2023-05-29T05:20:22;3.97;;;1.50;;
49139;SDS011;34959;49.310;8.646;2023-05-29T05:22:47;1.77;;;1.52;;
49139;SDS011;34959;49.310;8.646;2023-05-29T05:25:13;2.40;;;1.80;;
49139;SDS011;34959;49.310;8.646;2023-05-29T05:27:39;2.95;;;1.70;;
49139;SDS011;34959;49.310;8.646;2023-05-29T05:30:04;2.25;;;1.42;;
49139;SDS011;34959;49.310;8.646;2023-05-29T05:32:30;2.35;;;1.70;;
49139;SDS011;34959;49.310;8.646;2023-05-29T05:34:56;2.35;;;1.50;;
49139;SDS011;34959;49.310;8.646;2023-05-29T05:37:21;2.63;;;1.70;;
49139;SDS011;34959;49.310;8.646;2023-05-29T05:39:48;2.90;;;1.25;;
49139;SDS011;34959;49.310;8.646;2023-05-29T05:42:15;2.53;;;1.50;;
49139;SDS011;34959;49.310;8.646;2023-05-29T05:44:41;2.15;;;1.70;;
49139;SDS011;34959;49.310;8.646;2023-05-29T05:47:07;2.10;;;1.70;;
49139;SDS011;34959;49.310;8.646;2023-05-29T05:49:33;2.53;;;1.52;;
49139;SDS011;34959;49.310;8.646;2023-05-29T05:51:58;2.70;;;1.65;;
49139;SDS011;34959;49.310;8.646;2023-05-29T05:54:23;2.33;;;1.60;;
49139;SDS011;34959;49.310;8.646;2023-05-29T05:56:49;1.85;;;1.60;;
49139;SDS011;34959;49.310;8.646;2023-05-29T05:59:14;2.67;;;1.58;;
49139;SDS011;34959;49.310;8.646;2023-05-29T06:01:40;1.80;;;1.60;;
49139;SDS011;34959;49.310;8.646;2023-05-29T06:04:06;1.88;;;1.30;;
49139;SDS011;34959;49.310;8.646;2023-05-29T06:06:32;2.03;;;1.50;;
49139;SDS011;34959;49.310;8.646;2023-05-29T06:08:57;4.00;;;1.60;;
49139;SDS011;34959;49.310;8.646;2023-05-29T06:11:23;2.53;;;1.55;;
49139;SDS011;34959;49.310;8.646;2023-05-29T06:13:51;3.58;;;1.73;;
49139;SDS011;34959;49.310;8.646;2023-05-29T06:16:17;2.30;;;1.60;;
49139;SDS011;34959;49.310;8.646;2023-05-29T06:18:43;2.00;;;1.40;;
49139;SDS011;34959;49.310;8.646;2023-05-29T06:21:09;2.53;;;1.60;;
49139;SDS011;34959;49.310;8.646;2023-05-29T06:23:36;2.85;;;2.00;;
49139;SDS011;34959;49.310;8.646;2023-05-29T06:26:02;2.90;;;1.80;;
49139;SDS011;34959;49.310;8.646;2023-05-29T06:28:28;2.22;;;1.50;;
49139;SDS011;34959;49.310;8.646;2023-05-29T06:30:54;2.40;;;1.42;;
49139;SDS011;34959;49.310;8.646;2023-05-29T06:33:19;2.08;;;1.55;;
49139;SDS011;34959;49.310;8.646;2023-05-29T06:35:46;1.85;;;1.35;;
49139;SDS011;34959;49.310;8.646;2023-05-29T06:38:12;5.18;;;1.90;;
49139;SDS011;34959;49.310;8.646;2023-05-29T06:40:38;2.08;;;1.63;;
49139;SDS011;34959;49.310;8.646;2023-05-29T06:43:04;2.38;;;1.50;;
49139;SDS011;34959;49.310;8.646;2023-05-29T06:45:29;2.47;;;1.75;;
49139;SDS011;34959;49.310;8.646;2023-05-29T06:47:54;2.85;;;1.60;;
49139;SDS011;34959;49.310;8.646;2023-05-29T06:50:20;2.55;;;1.83;;
49139;SDS011;34959;49.310;8.646;2023-05-29T06:52:46;2.03;;;1.25;;
49139;SDS011;34959;49.310;8.646;2023-05-29T06:55:11;4.82;;;1.52;;
49139;SDS011;34959;49.310;8.646;2023-05-29T06:57:36;3.20;;;1.90;;
49139;SDS011;34959;49.310;8.646;2023-05-29T07:00:03;5.88;;;2.90;;
49139;SDS011;34959;49.310;8.646;2023-05-29T07:02:31;4.82;;;2.85;;
49139;SDS011;34959;49.310;8.646;2023-05-29T07:04:56;7.32;;;2.80;;
49139;SDS011;34959;49.310;8.646;2023-05-29T07:07:22;4.97;;;2.95;;
49139;SDS011;34959;49.310;8.646;2023-05-29T07:09:47;5.82;;;2.70;;
49139;SDS011;34959;49.310;8.646;2023-05-29T07:12:12;7.43;;;3.25;;
49139;SDS011;34959;49.310;8.646;2023-05-29T07:14:38;7.28;;;2.75;;
49139;SDS011;34959;49.310;8.646;2023-05-29T07:17:03;7.88;;;2.50;;
49139;SDS011;34959;49.310;8.646;2023-05-29T07:19:29;4.97;;;3.05;;
49139;SDS011;34959;49.310;8.646;2023-05-29T07:21:54;6.13;;;3.03;;
49139;SDS011;34959;49.310;8.646;2023-05-29T07:24:20;5.60;;;2.53;;
49139;SDS011;34959;49.310;8.646;2023-05-29T07:26:45;3.70;;;2.47;;
49139;SDS011;34959;49.310;8.646;2023-05-29T07:29:10;5.05;;;2.45;;
49139;SDS011;34959;49.310;8.646;2023-05-29T07:31:37;7.47;;;2.63;;
49139;SDS011;34959;49.310;8.646;2023-05-29T07:34:05;5.78;;;3.17;;
49139;SDS011;34959;49.310;8.646;2023-05-29T07:36:31;5.32;;;3.00;;
49139;SDS011;34959;49.310;8.646;2023-05-29T07:38:56;4.93;;;2.58;;
49139;SDS011;34959;49.310;8.646;2023-05-29T07:41:23;3.88;;;2.35;;
49139;SDS011;34959;49.310;8.646;2023-05-29T07:43:49;5.80;;;2.70;;
49139;SDS011;34959;49.310;8.646;2023-05-29T07:46:17;3.97;;;2.40;;
49139;SDS011;34959;49.310;8.646;2023-05-29T07:48:43;5.90;;;2.75;;
49139;SDS011;34959;49.310;8.646;2023-05-29T07:51:08;4.22;;;2.63;;
49139;SDS011;34959;49.310;8.646;2023-05-29T07:53:35;5.95;;;2.80;;
49139;SDS011;34959;49.310;8.646;2023-05-29T07:56:01;4.63;;;2.70;;
49139;SDS011;34959;49.310;8.646;2023-05-29T07:58:26;5.68;;;3.00;;
49139;SDS011;34959;49.310;8.646;2023-05-29T08:00:52;5.90;;;2.55;;
49139;SDS011;34959;49.310;8.646;2023-05-29T08:03:18;5.45;;;2.70;;
49139;SDS011;34959;49.310;8.646;2023-05-29T08:05:43;7.43;;;3.38;;
49139;SDS011;34959;49.310;8.646;2023-05-29T08:08:09;5.95;;;2.65;;
49139;SDS011;34959;49.310;8.646;2023-05-29T08:10:37;5.85;;;2.83;;
49139;SDS011;34959;49.310;8.646;2023-05-29T08:13:03;4.22;;;2.70;;
49139;SDS011;34959;49.310;8.646;2023-05-29T08:15:28;5.03;;;2.50;;
49139;SDS011;34959;49.310;8.646;2023-05-29T08:17:54;4.90;;;2.53;;
49139;SDS011;34959;49.310;8.646;2023-05-29T08:20:19;4.93;;;2.45;;
49139;SDS011;34959;49.310;8.646;2023-05-29T08:22:45;5.03;;;2.58;;
49139;SDS011;34959;49.310;8.646;2023-05-29T08:25:11;5.90;;;2.70;;
49139;SDS011;34959;49.310;8.646;2023-05-29T08:27:37;4.97;;;2.78;;
49139;SDS011;34959;49.310;8.646;2023-05-29T08:30:03;4.28;;;2.80;;
49139;SDS011;34959;49.310;8.646;2023-05-29T08:32:28;4.53;;;2.72;;
49139;SDS011;34959;49.310;8.646;2023-05-29T08:34:54;4.88;;;2.42;;
49139;SDS011;34959;49.310;8.646;2023-05-29T08:37:19;3.75;;;2.67;;
49139;SDS011;34959;49.310;8.646;2023-05-29T08:39:45;4.55;;;2.40;;
49139;SDS011;34959;49.310;8.646;2023-05-29T08:42:17;4.97;;;2.45;;
49139;SDS011;34959;49.310;8.646;2023-05-29T08:44:47;4.38;;;2.55;;
49139;SDS011;34959;49.310;8.646;2023-05-29T08:47:16;4.20;;;2.50;;
49139;SDS011;34959;49.310;8.646;2023-05-29T08:49:45;5.30;;;2.55;;
49139;SDS011;34959;49.310;8.646;2023-05-29T08:52:19;4.63;;;2.55;;
49139;SDS011;34959;49.310;8.646;2023-05-29T08:54:45;5.05;;;2.25;;
49139;SDS011;34959;49.310;8.646;2023-05-29T08:57:11;4.45;;;2.50;;
49139;SDS011;34959;49.310;8.646;2023-05-29T08:59:37;4.53;;;2.60;;
49139;SDS011;34959;49.310;8.646;2023-05-29T09:02:05;3.40;;;2.40;;
49139;SDS011;34959;49.310;8.646;2023-05-29T09:04:30;4.65;;;2.22;;
49139;SDS011;34959;49.310;8.646;2023-05-29T09:06:57;4.18;;;2.42;;
49139;SDS011;34959;49.310;8.646;2023-05-29T09:09:23;4.40;;;2.42;;
49139;SDS011;34959;49.310;8.646;2023-05-29T09:11:51;4.97;;;2.47;;
49139;SDS011;34959;49.310;8.646;2023-05-29T09:17:06;4.60;;;2.38;;
49139;SDS011;34959;49.310;8.646;2023-05-29T09:19:33;6.13;;;2.47;;
49139;SDS011;34959;49.310;8.646;2023-05-29T09:22:00;4.28;;;2.38;;
49139;SDS011;34959;49.310;8.646;2023-05-29T09:24:28;5.63;;;2.47;;
49139;SDS011;34959;49.310;8.646;2023-05-29T09:26:53;7.88;;;2.50;;
49139;SDS011;34959;49.310;8.646;2023-05-29T09:29:19;4.28;;;2.20;;
49139;SDS011;34959;49.310;8.646;2023-05-29T09:31:45;4.47;;;2.42;;
49139;SDS011;34959;49.310;8.646;2023-05-29T09:34:14;4.75;;;2.42;;
49139;SDS011;34959;49.310;8.646;2023-05-29T09:36:40;4.70;;;2.38;;
49139;SDS011;34959;49.310;8.646;2023-05-29T09:39:05;4.45;;;2.80;;
49139;SDS011;34959;49.310;8.646;2023-05-29T09:41:34;4.20;;;2.33;;
49139;SDS011;34959;49.310;8.646;2023-05-29T09:44:06;4.05;;;2.25;;
49139;SDS011;34959;49.310;8.646;2023-05-29T09:46:35;5.38;;;2.85;;
49139;SDS011;34959;49.310;8.646;2023-05-29T09:49:01;4.10;;;2.38;;
49139;SDS011;34959;49.310;8.646;2023-05-29T09:51:28;4.65;;;2.28;;
49139;SDS011;34959;49.310;8.646;2023-05-29T09:53:53;5.40;;;2.35;;
49139;SDS011;34959;49.310;8.646;2023-05-29T09:56:22;4.20;;;2.47;;
49139;SDS011;34959;49.310;8.646;2023-05-29T09:58:49;5.45;;;2.22;;
49139;SDS011;34959;49.310;8.646;2023-05-29T10:01:16;3.85;;;2.30;;
49139;SDS011;34959;49.310;8.646;2023-05-29T10:03:42;4.50;;;2.47;;
49139;SDS011;34959;49.310;8.646;2023-05-29T10:06:09;4.50;;;2.40;;
49139;SDS011;34959;49.310;8.646;2023-05-29T10:08:37;4.30;;;2.50;;
49139;SDS011;34959;49.310;8.646;2023-05-29T10:11:03;3.80;;;2.00;;
49139;SDS011;34959;49.310;8.646;2023-05-29T10:13:34;6.28;;;2.10;;
49139;SDS011;34959;49.310;8.646;2023-05-29T10:16:02;5.80;;;2.30;;
49139;SDS011;34959;49.310;8.646;2023-05-29T10:18:38;3.50;;;2.00;;
49139;SDS011;34959;49.310;8.646;2023-05-29T10:21:05;4.40;;;2.53;;
49139;SDS011;34959;49.310;8.646;2023-05-29T10:23:32;18.48;;;3.20;;
49139;SDS011;34959;49.310;8.646;2023-05-29T10:26:02;10.38;;;2.80;;
49139;SDS011;34959;49.310;8.646;2023-05-29T10:28:36;4.93;;;2.75;;
49139;SDS011;34959;49.310;8.646;2023-05-29T10:31:08;7.55;;;3.05;;
49139;SDS011;34959;49.310;8.646;2023-05-29T10:33:42;5.03;;;2.65;;
49139;SDS011;34959;49.310;8.646;2023-05-29T10:38:41;8.20;;;2.85;;
49139;SDS011;34959;49.310;8.646;2023-05-29T10:43:54;4.32;;;2.70;;
49139;SDS011;34959;49.310;8.646;2023-05-29T10:46:20;4.13;;;2.47;;
49139;SDS011;34959;49.310;8.646;2023-05-29T10:48:48;6.03;;;2.35;;
49139;SDS011;34959;49.310;8.646;2023-05-29T10:51:24;4.75;;;2.30;;
49139;SDS011;34959;49.310;8.646;2023-05-29T10:53:51;4.05;;;2.22;;
49139;SDS011;34959;49.310;8.646;2023-05-29T10:56:21;3.70;;;2.20;;
49139;SDS011;34959;49.310;8.646;2023-05-29T10:58:55;3.97;;;2.30;;
49139;SDS011;34959;49.310;8.646;2023-05-29T11:01:27;5.10;;;2.45;;
49139;SDS011;34959;49.310;8.646;2023-05-29T11:06:45;8.38;;;2.85;;
49139;SDS011;34959;49.310;8.646;2023-05-29T11:12:11;6.10;;;2.30;;
49139;SDS011;34959;49.310;8.646;2023-05-29T11:14:46;4.20;;;2.37;;
49139;SDS011;34959;49.310;8.646;2023-05-29T11:20:04;4.82;;;2.53;;
49139;SDS011;34959;49.310;8.646;2023-05-29T11:22:42;5.15;;;2.30;;
49139;SDS011;34959;49.310;8.646;2023-05-29T11:25:17;3.78;;;2.00;;
49139;SDS011;34959;49.310;8.646;2023-05-29T11:27:44;4.43;;;2.22;;
49139;SDS011;34959;49.310;8.646;2023-05-29T11:30:10;3.58;;;2.30;;
49139;SDS011;34959;49.310;8.646;2023-05-29T11:32:36;5.47;;;1.95;;
49139;SDS011;34959;49.310;8.646;2023-05-29T11:35:05;3.33;;;2.00;;
49139;SDS011;34959;49.310;8.646;2023-05-29T11:37:34;3.38;;;1.90;;
49139;SDS011;34959;49.310;8.646;2023-05-29T11:40:00;5.03;;;2.20;;
49139;SDS011;34959;49.310;8.646;2023-05-29T11:42:29;3.47;;;2.13;;
49139;SDS011;34959;49.310;8.646;2023-05-29T11:44:55;3.38;;;2.00;;
49139;SDS011;34959;49.310;8.646;2023-05-29T11:47:20;3.67;;;2.10;;
49139;SDS011;34959;49.310;8.646;2023-05-29T11:49:48;5.30;;;1.70;;
49139;SDS011;34959;49.310;8.646;2023-05-29T11:52:14;4.63;;;1.65;;
49139;SDS011;34959;49.310;8.646;2023-05-29T11:54:39;2.97;;;2.03;;
49139;SDS011;34959;49.310;8.646;2023-05-29T11:59:37;3.15;;;1.85;;
49139;SDS011;34959;49.310;8.646;2023-05-29T12:02:04;4.43;;;2.00;;
49139;SDS011;34959;49.310;8.646;2023-05-29T12:04:29;3.08;;;1.92;;
49139;SDS011;34959;49.310;8.646;2023-05-29T12:06:55;3.30;;;1.80;;
49139;SDS011;34959;49.310;8.646;2023-05-29T12:09:24;3.60;;;1.98;;
49139;SDS011;34959;49.310;8.646;2023-05-29T12:14:18;3.05;;;2.13;;
49139;SDS011;34959;49.310;8.646;2023-05-29T12:16:44;4.00;;;2.28;;
49139;SDS011;34959;49.310;8.646;2023-05-29T12:19:10;2.78;;;1.80;;
49139;SDS011;34959;49.310;8.646;2023-05-29T12:21:35;4.55;;;2.00;;
49139;SDS011;34959;49.310;8.646;2023-05-29T12:24:06;5.25;;;2.10;;
49139;SDS011;34959;49.310;8.646;2023-05-29T12:26:32;2.58;;;1.90;;
49139;SDS011;34959;49.310;8.646;2023-05-29T12:28:58;4.38;;;2.00;;
49139;SDS011;34959;49.310;8.646;2023-05-29T12:31:28;3.55;;;2.13;;
49139;SDS011;34959;49.310;8.646;2023-05-29T12:33:54;3.38;;;2.03;;
49139;SDS011;34959;49.310;8.646;2023-05-29T12:36:25;5.50;;;2.38;;
49139;SDS011;34959;49.310;8.646;2023-05-29T12:38:51;2.90;;;1.95;;
49139;SDS011;34959;49.310;8.646;2023-05-29T12:41:21;3.40;;;1.85;;
49139;SDS011;34959;49.310;8.646;2023-05-29T12:43:55;2.97;;;2.00;;
49139;SDS011;34959;49.310;8.646;2023-05-29T12:46:21;3.97;;;1.95;;
49139;SDS011;34959;49.310;8.646;2023-05-29T12:48:47;4.47;;;2.05;;
49139;SDS011;34959;49.310;8.646;2023-05-29T12:51:12;3.53;;;2.00;;
49139;SDS011;34959;49.310;8.646;2023-05-29T12:53:38;3.90;;;2.08;;
49139;SDS011;34959;49.310;8.646;2023-05-29T12:56:03;3.55;;;2.00;;
49139;SDS011;34959;49.310;8.646;2023-05-29T12:58:29;5.40;;;2.10;;
49139;SDS011;34959;49.310;8.646;2023-05-29T13:00:54;3.28;;;1.63;;
49139;SDS011;34959;49.310;8.646;2023-05-29T13:03:21;3.78;;;1.85;;
49139;SDS011;34959;49.310;8.646;2023-05-29T13:05:48;4.40;;;2.53;;
49139;SDS011;34959;49.310;8.646;2023-05-29T13:08:15;3.10;;;2.00;;
49139;SDS011;34959;49.310;8.646;2023-05-29T13:10:40;4.20;;;1.92;;
49139;SDS011;34959;49.310;8.646;2023-05-29T13:13:06;3.05;;;1.92;;
49139;SDS011;34959;49.310;8.646;2023-05-29T13:15:31;3.38;;;1.95;;
49139;SDS011;34959;49.310;8.646;2023-05-29T13:17:58;2.97;;;2.00;;
49139;SDS011;34959;49.310;8.646;2023-05-29T13:20:24;4.30;;;1.75;;
49139;SDS011;34959;49.310;8.646;2023-05-29T13:22:49;3.17;;;1.90;;
49139;SDS011;34959;49.310;8.646;2023-05-29T13:25:15;3.08;;;1.77;;
49139;SDS011;34959;49.310;8.646;2023-05-29T13:27:43;4.30;;;1.98;;
49139;SDS011;34959;49.310;8.646;2023-05-29T13:30:10;3.03;;;1.85;;
49139;SDS011;34959;49.310;8.646;2023-05-29T13:32:37;4.03;;;1.80;;
49139;SDS011;34959;49.310;8.646;2023-05-29T13:35:03;2.63;;;1.95;;
49139;SDS011;34959;49.310;8.646;2023-05-29T13:37:28;2.85;;;1.77;;
49139;SDS011;34959;49.310;8.646;2023-05-29T13:39:54;3.03;;;1.90;;
49139;SDS011;34959;49.310;8.646;2023-05-29T13:42:20;4.70;;;1.80;;
49139;SDS011;34959;49.310;8.646;2023-05-29T13:44:46;5.00;;;2.10;;
49139;SDS011;34959;49.310;8.646;2023-05-29T13:47:12;3.00;;;2.05;;
49139;SDS011;34959;49.310;8.646;2023-05-29T13:49:38;2.70;;;1.80;;
49139;SDS011;34959;49.310;8.646;2023-05-29T13:52:03;3.47;;;1.92;;
49139;SDS011;34959;49.310;8.646;2023-05-29T13:54:29;4.03;;;1.65;;
49139;SDS011;34959;49.310;8.646;2023-05-29T13:56:56;2.22;;;1.55;;
49139;SDS011;34959;49.310;8.646;2023-05-29T13:59:23;2.88;;;2.00;;
49139;SDS011;34959;49.310;8.646;2023-05-29T14:01:49;3.17;;;2.17;;
49139;SDS011;34959;49.310;8.646;2023-05-29T14:04:14;2.78;;;1.88;;
49139;SDS011;34959;49.310;8.646;2023-05-29T14:06:40;3.92;;;1.95;;
49139;SDS011;34959;49.310;8.646;2023-05-29T14:09:05;3.35;;;1.63;;
49139;SDS011;34959;49.310;8.646;2023-05-29T14:11:34;3.22;;;1.90;;
49139;SDS011;34959;49.310;8.646;2023-05-29T14:14:02;3.42;;;2.25;;
49139;SDS011;34959;49.310;8.646;2023-05-29T14:16:28;3.78;;;1.73;;
49139;SDS011;34959;49.310;8.646;2023-05-29T14:18:53;2.58;;;1.70;;
49139;SDS011;34959;49.310;8.646;2023-05-29T14:21:19;3.58;;;1.70;;
49139;SDS011;34959;49.310;8.646;2023-05-29T14:23:45;3.78;;;1.90;;
49139;SDS011;34959;49.310;8.646;2023-05-29T14:26:11;3.10;;;1.70;;
49139;SDS011;34959;49.310;8.646;2023-05-29T14:28:40;2.38;;;1.70;;
49139;SDS011;34959;49.310;8.646;2023-05-29T14:31:06;5.00;;;1.80;;
49139;SDS011;34959;49.310;8.646;2023-05-29T14:33:31;2.42;;;1.60;;
49139;SDS011;34959;49.310;8.646;2023-05-29T14:35:57;2.70;;;1.60;;
49139;SDS011;34959;49.310;8.646;2023-05-29T14:38:23;2.75;;;1.85;;
49139;SDS011;34959;49.310;8.646;2023-05-29T14:40:49;3.90;;;1.88;;
49139;SDS011;34959;49.310;8.646;2023-05-29T14:43:14;2.53;;;1.38;;
49139;SDS011;34959;49.310;8.646;2023-05-29T14:45:40;2.20;;;1.70;;
49139;SDS011;34959;49.310;8.646;2023-05-29T14:48:05;2.47;;;1.70;;
49139;SDS011;34959;49.310;8.646;2023-05-29T14:50:31;3.22;;;1.67;;
49139;SDS011;34959;49.310;8.646;2023-05-29T14:52:56;3.40;;;1.65;;
49139;SDS011;34959;49.310;8.646;2023-05-29T14:55:22;2.53;;;1.63;;
49139;SDS011;34959;49.310;8.646;2023-05-29T14:57:47;4.53;;;2.00;;
49139;SDS011;34959;49.310;8.646;2023-05-29T15:00:13;1.83;;;1.50;;
49139;SDS011;34959;49.310;8.646;2023-05-29T15:02:39;2.83;;;1.60;;
49139;SDS011;34959;49.310;8.646;2023-05-29T15:05:05;2.78;;;1.67;;
49139;SDS011;34959;49.310;8.646;2023-05-29T15:07:32;3.75;;;1.70;;
49139;SDS011;34959;49.310;8.646;2023-05-29T15:09:59;2.20;;;1.35;;
49139;SDS011;34959;49.310;8.646;2023-05-29T15:12:25;2.95;;;1.63;;
49139;SDS011;34959;49.310;8.646;2023-05-29T15:14:51;1.92;;;1.50;;
49139;SDS011;34959;49.310;8.646;2023-05-29T15:17:16;2.30;;;1.55;;
49139;SDS011;34959;49.310;8.646;2023-05-29T15:19:42;2.63;;;1.75;;
49139;SDS011;34959;49.310;8.646;2023-05-29T15:22:08;2.85;;;1.80;;